Adell, Wisconsin
Current Conditions -  °F | °C
As of 2:53 PM on Saturday 20 Dec 2014 (Local Time) from KSBM Reporting Station
Light Snow Light Snow  
Wind Chill: 31°   Ceiling: 6000
Heat Index: 31°   Visibility: 5mi
Dew Point: 23°   Wind: 0mph
Humidity: 72%   Direction: NA
Pressure: 30.23"   Gusts: NA
Location:  43.62°N, 87.95°W
Report Text: KSBM 202053Z AUTO 00000KT 5SM -SN OVC060 M01/M05 A3023 RMK AO2 SNB46 SLP245 P0000 60000 T10061050 55006
Loading
Personal Weather Stations






























Interactive Weather Map New forecast layout! Learn more

10-Day Weather Forecast

Advertisements
Track Severe Weather on mobile